createdAt,value
2023-01-28T00:00:01.185Z,102458.94
2023-01-28T00:02:31.102Z,102460.25
2023-01-28T00:04:59.436Z,102464.63
2023-01-28T00:07:27.915Z,102449.63
2023-01-28T00:09:56.236Z,102453.75
2023-01-28T00:12:24.671Z,102456.25
2023-01-28T00:14:52.983Z,102458.44
2023-01-28T00:17:21.363Z,102456.97
2023-01-28T00:19:51.087Z,102440.78
2023-01-28T00:22:19.499Z,102455.06
2023-01-28T00:24:47.786Z,102452.41
2023-01-28T00:27:16.141Z,102443.72
2023-01-28T00:29:44.442Z,102452.66
2023-01-28T00:32:12.780Z,102459.69
2023-01-28T00:34:41.103Z,102454.50
2023-01-28T00:37:11.088Z,102461.19
2023-01-28T00:39:39.412Z,102468.63
2023-01-28T00:42:07.769Z,102470.22
2023-01-28T00:44:36.434Z,102464.44
2023-01-28T00:47:04.799Z,102457.72
2023-01-28T00:49:33.134Z,102462.38
2023-01-28T00:52:01.461Z,102461.25
2023-01-28T00:54:32.336Z,102463.31
2023-01-28T00:57:00.642Z,102462.16
2023-01-28T00:59:29.045Z,102460.22
2023-01-28T01:02:12.183Z,102468.47
2023-01-28T01:04:41.208Z,102461.75
2023-01-28T01:07:09.597Z,102458.75
2023-01-28T01:09:39.450Z,102464.13
2023-01-28T01:12:09.020Z,102468.19
2023-01-28T01:14:37.353Z,102469.56
2023-01-28T01:17:06.088Z,102465.78
2023-01-28T01:19:34.419Z,102464.50
2023-01-28T01:22:02.990Z,102463.63
2023-01-28T01:24:33.988Z,102460.66
2023-01-28T01:27:05.957Z,102458.09
2023-01-28T01:29:34.375Z,102454.50
2023-01-28T01:32:02.818Z,102457.91
2023-01-28T01:34:31.245Z,102460.00
2023-01-28T01:37:00.212Z,102461.31
2023-01-28T01:39:28.533Z,102465.66
2023-01-28T01:41:56.874Z,102470.66
2023-01-28T01:45:06.492Z,102474.13
2023-01-28T01:47:43.112Z,102480.03
2023-01-28T01:50:19.709Z,102483.78
2023-01-28T01:52:51.815Z,102475.44
2023-01-28T01:55:25.267Z,102470.59
2023-01-28T01:57:56.681Z,102479.31
2023-01-28T02:00:26.632Z,102479.44
2023-01-28T02:02:56.760Z,102477.38
2023-01-28T02:05:25.141Z,102482.28
2023-01-28T02:08:17.046Z,102486.22
2023-01-28T02:10:46.044Z,102482.13
2023-01-28T02:13:16.044Z,102492.78
2023-01-28T02:15:47.297Z,102491.06
2023-01-28T02:18:15.843Z,102486.53
2023-01-28T02:21:22.426Z,102490.16
2023-01-28T02:24:07.958Z,102491.78
2023-01-28T02:27:02.982Z,102493.72
2023-01-28T02:29:39.615Z,102499.00
2023-01-28T02:32:16.234Z,102499.09
2023-01-28T02:34:49.392Z,102496.34
2023-01-28T02:37:22.853Z,102506.63
2023-01-28T02:39:57.902Z,102505.16
2023-01-28T02:42:31.077Z,102501.53
2023-01-28T02:45:01.073Z,102501.56
2023-01-28T02:47:47.441Z,102510.03
2023-01-28T02:50:20.234Z,102500.44
2023-01-28T02:53:20.769Z,102500.94
2023-01-28T02:55:58.691Z,102513.06
2023-01-28T02:58:38.903Z,102495.03
2023-01-28T03:01:20.154Z,102502.19
2023-01-28T03:04:00.322Z,102501.56
2023-01-28T03:06:36.478Z,102500.19
2023-01-28T03:09:23.744Z,102496.66
2023-01-28T03:12:15.239Z,102502.97
2023-01-28T03:15:04.896Z,102504.91
2023-01-28T03:18:01.286Z,102495.88
2023-01-28T03:20:54.157Z,102499.22
2023-01-28T03:23:46.197Z,102499.34
2023-01-28T03:26:34.464Z,102496.88
2023-01-28T03:29:27.415Z,102497.63
2023-01-28T03:32:15.202Z,102496.19
2023-01-28T03:35:03.883Z,102494.81
2023-01-28T03:37:33.535Z,102488.91
2023-01-28T03:40:07.245Z,102489.09
2023-01-28T03:42:36.181Z,102499.28
2023-01-28T03:45:05.503Z,102496.59
2023-01-28T03:47:35.215Z,102495.53
2023-01-28T03:50:06.728Z,102496.91
2023-01-28T03:52:35.733Z,102503.66
2023-01-28T03:55:13.521Z,102499.50
2023-01-28T03:57:45.014Z,102503.78
2023-01-28T04:00:17.252Z,102507.56
2023-01-28T04:02:46.302Z,102504.00
2023-01-28T04:05:19.903Z,102509.97
2023-01-28T04:07:48.225Z,102506.84
2023-01-28T04:10:17.563Z,102515.81
2023-01-28T04:12:45.854Z,102510.69
2023-01-28T04:15:16.929Z,102522.16
2023-01-28T04:17:49.670Z,102517.63
2023-01-28T04:20:19.893Z,102526.78
2023-01-28T04:22:48.202Z,102513.03
2023-01-28T04:25:17.004Z,102520.28
2023-01-28T04:27:45.535Z,102521.59
2023-01-28T04:30:14.233Z,102524.09
2023-01-28T04:32:42.870Z,102527.88
2023-01-28T04:35:11.628Z,102527.91
2023-01-28T04:37:42.709Z,102528.34
2023-01-28T04:40:12.792Z,102531.28
2023-01-28T04:42:41.125Z,102535.88
2023-01-28T04:45:10.750Z,102539.22
2023-01-28T04:47:39.318Z,102530.97
2023-01-28T04:50:08.618Z,102525.75
2023-01-28T04:52:36.898Z,102527.22
2023-01-28T04:55:07.888Z,102532.66
2023-01-28T04:57:36.445Z,102523.44
2023-01-28T05:00:05.903Z,102527.25
2023-01-28T05:02:34.495Z,102522.94
2023-01-28T05:05:04.898Z,102522.94
2023-01-28T05:07:33.499Z,102517.22
2023-01-28T05:10:02.083Z,102516.38
2023-01-28T05:12:33.104Z,102512.28
2023-01-28T05:15:01.821Z,102514.22
2023-01-28T05:17:30.514Z,102516.41
2023-01-28T05:19:58.789Z,102519.22
2023-01-28T05:22:27.095Z,102516.59
2023-01-28T05:24:55.633Z,102514.16
2023-01-28T05:27:24.326Z,102507.63
2023-01-28T05:29:54.230Z,102520.91
2023-01-28T05:32:22.910Z,102528.94
2023-01-28T05:34:51.561Z,102523.25
2023-01-28T05:37:20.216Z,102537.06
2023-01-28T05:39:48.786Z,102531.41
2023-01-28T05:42:18.751Z,102537.59
2023-01-28T05:44:47.367Z,102544.22
2023-01-28T05:47:17.349Z,102542.00
2023-01-28T05:49:46.521Z,102534.28
2023-01-28T05:52:15.157Z,102539.00
2023-01-28T05:54:44.709Z,102547.75
2023-01-28T05:57:13.338Z,102556.34
2023-01-28T05:59:41.616Z,102561.16
2023-01-28T06:02:10.253Z,102553.81
2023-01-28T06:04:40.205Z,102558.38
2023-01-28T06:07:08.525Z,102545.13
2023-01-28T06:09:36.812Z,102549.53
2023-01-28T06:12:05.495Z,102548.19
2023-01-28T06:14:34.076Z,102545.91
2023-01-28T06:17:02.652Z,102564.44
2023-01-28T06:19:30.925Z,102562.69
2023-01-28T06:22:00.616Z,102566.00
2023-01-28T06:24:29.385Z,102560.44
2023-01-28T06:26:58.045Z,102556.91
2023-01-28T06:29:26.777Z,102556.19
2023-01-28T06:31:55.673Z,102562.06
2023-01-28T06:34:24.307Z,102562.19
2023-01-28T06:36:53.534Z,102553.75
2023-01-28T06:39:23.953Z,102563.34
2023-01-28T06:41:52.767Z,102557.34
2023-01-28T06:44:21.133Z,102554.09
2023-01-28T06:46:49.524Z,102561.78
2023-01-28T06:49:17.867Z,102559.84
2023-01-28T06:51:46.189Z,102553.69
2023-01-28T06:54:14.816Z,102553.09
2023-01-28T06:56:45.311Z,102555.56
2023-01-28T06:59:13.889Z,102552.31
2023-01-28T07:01:42.548Z,102552.38
2023-01-28T07:04:11.314Z,102559.88
2023-01-28T07:06:39.885Z,102558.31
2023-01-28T07:09:08.445Z,102564.75
2023-01-28T07:11:37.042Z,102574.22
2023-01-28T07:14:07.081Z,102573.22
2023-01-28T07:16:35.675Z,102569.16
2023-01-28T07:19:04.478Z,102573.56
2023-01-28T07:21:33.077Z,102567.31
2023-01-28T07:24:01.649Z,102571.69
2023-01-28T07:26:30.239Z,102573.56
2023-01-28T07:28:58.795Z,102562.41
2023-01-28T07:31:28.832Z,102563.81
2023-01-28T07:33:57.250Z,102568.63
2023-01-28T07:36:25.924Z,102563.69
2023-01-28T07:38:54.502Z,102566.31
2023-01-28T07:41:23.152Z,102564.06
2023-01-28T07:43:51.700Z,102572.53
2023-01-28T07:46:20.350Z,102572.13
2023-01-28T07:48:50.256Z,102570.50
2023-01-28T07:51:18.565Z,102575.91
2023-01-28T07:53:46.861Z,102580.97
2023-01-28T07:56:15.186Z,102575.41
2023-01-28T07:58:43.459Z,102573.03
2023-01-28T08:01:11.772Z,102593.72
2023-01-28T08:03:40.108Z,102608.75
2023-01-28T08:06:11.636Z,102610.81
2023-01-28T08:08:39.994Z,102610.31
2023-01-28T08:11:10.827Z,102612.13
2023-01-28T08:13:39.295Z,102627.72
2023-01-28T08:16:08.880Z,102620.19
2023-01-28T08:18:37.193Z,102613.59
2023-01-28T08:21:05.676Z,102619.31
2023-01-28T08:23:35.628Z,102621.19
2023-01-28T08:26:03.891Z,102623.88
2023-01-28T08:28:32.230Z,102617.09
2023-01-28T08:31:01.759Z,102623.03
2023-01-28T08:33:30.362Z,102624.38
2023-01-28T08:35:58.696Z,102619.47
2023-01-28T08:38:27.019Z,102622.66
2023-01-28T08:40:59.045Z,102636.50
2023-01-28T08:43:27.772Z,102630.69
2023-01-28T08:45:56.031Z,102638.78
2023-01-28T08:48:24.319Z,102655.78
2023-01-28T08:50:52.699Z,102663.81
2023-01-28T08:53:21.961Z,102658.59
2023-01-28T08:55:50.278Z,102665.16
2023-01-28T08:58:20.141Z,102669.34
2023-01-28T09:00:49.352Z,102672.41
2023-01-28T09:03:18.430Z,102685.16
2023-01-28T09:05:46.926Z,102693.81
2023-01-28T09:08:16.652Z,102683.38
2023-01-28T09:10:45.076Z,102685.97
2023-01-28T09:13:15.959Z,102696.66
2023-01-28T09:15:45.772Z,102693.66
2023-01-28T09:18:14.209Z,102695.44
2023-01-28T09:20:42.611Z,102703.34
2023-01-28T09:23:11.687Z,102705.31
2023-01-28T09:25:39.985Z,102694.34
2023-01-28T09:28:09.050Z,102684.84
2023-01-28T09:30:38.219Z,102711.22
2023-01-28T09:33:09.124Z,102720.00
2023-01-28T09:35:38.030Z,102716.97
2023-01-28T09:38:06.728Z,102718.72
2023-01-28T09:40:38.629Z,102709.94
2023-01-28T09:43:33.529Z,102714.88
2023-01-28T09:46:06.085Z,102719.28
2023-01-28T09:48:39.191Z,102740.53
2023-01-28T09:51:17.097Z,102719.47
2023-01-28T09:53:50.143Z,102715.56
2023-01-28T09:56:26.845Z,102715.81
2023-01-28T09:58:55.578Z,102715.53
2023-01-28T10:01:40.934Z,102711.25
2023-01-28T10:04:23.173Z,102711.63
2023-01-28T10:07:02.236Z,102710.75
2023-01-28T10:09:42.637Z,102718.63
2023-01-28T10:12:37.623Z,102714.00
2023-01-28T10:15:28.492Z,102713.94
2023-01-28T10:18:15.985Z,102716.19
2023-01-28T10:20:50.914Z,102711.25
2023-01-28T10:23:26.570Z,102715.34
2023-01-28T10:25:57.891Z,102702.66
2023-01-28T10:28:30.001Z,102706.63
2023-01-28T10:30:58.693Z,102682.84
2023-01-28T10:33:36.941Z,102695.38
2023-01-28T10:36:08.663Z,102697.44
2023-01-28T10:38:37.597Z,102696.41
2023-01-28T10:41:08.889Z,102703.50
2023-01-28T10:43:41.380Z,102700.66
2023-01-28T10:46:14.216Z,102705.47
2023-01-28T10:48:47.609Z,102701.56
2023-01-28T10:51:19.891Z,102714.72
2023-01-28T10:53:48.672Z,102705.59
2023-01-28T10:56:27.351Z,102716.47
2023-01-28T10:59:00.979Z,102718.56
2023-01-28T11:01:45.454Z,102714.84
2023-01-28T11:04:24.580Z,102736.47
2023-01-28T11:07:00.308Z,102726.72
2023-01-28T11:09:31.531Z,102727.69
2023-01-28T11:12:00.697Z,102726.53
2023-01-28T11:14:29.658Z,102733.16
2023-01-28T11:17:00.098Z,102745.97
2023-01-28T11:19:35.380Z,102742.16
2023-01-28T11:22:05.509Z,102744.53
2023-01-28T11:24:35.732Z,102742.00
2023-01-28T11:27:17.181Z,102744.72
2023-01-28T11:29:46.427Z,102728.75
2023-01-28T11:32:20.354Z,102720.97
2023-01-28T11:34:53.796Z,102727.09
2023-01-28T11:37:25.204Z,102723.06
2023-01-28T11:40:20.040Z,102721.91
2023-01-28T11:42:51.610Z,102723.28
2023-01-28T11:45:23.792Z,102719.59
2023-01-28T11:48:19.291Z,102717.81
2023-01-28T11:50:56.068Z,102716.97
2023-01-28T11:53:42.729Z,102720.16
2023-01-28T11:56:38.155Z,102715.75
2023-01-28T11:59:39.832Z,102723.81
2023-01-28T12:02:23.774Z,102715.47
2023-01-28T12:05:05.638Z,102710.16
2023-01-28T12:07:43.715Z,102706.47
2023-01-28T12:10:23.948Z,102693.94
2023-01-28T12:13:11.001Z,102680.31
2023-01-28T12:16:11.152Z,102677.53
2023-01-28T12:19:08.077Z,102674.16
2023-01-28T12:21:50.220Z,102685.56
2023-01-28T12:24:35.889Z,102664.72
2023-01-28T12:27:14.680Z,102661.38
2023-01-28T12:29:51.815Z,102651.63
2023-01-28T12:32:40.344Z,102659.50
2023-01-28T12:35:44.727Z,102657.63
2023-01-28T12:38:20.014Z,102646.91
2023-01-28T12:41:01.148Z,102632.34
2023-01-28T12:43:48.742Z,102623.22
2023-01-28T12:46:29.063Z,102603.97
2023-01-28T12:49:04.790Z,102595.22
2023-01-28T12:51:40.676Z,102578.47
2023-01-28T12:54:19.239Z,102568.66
2023-01-28T12:56:53.304Z,102574.66
2023-01-28T12:59:28.904Z,102584.06
2023-01-28T13:02:07.798Z,102587.72
2023-01-28T13:04:43.654Z,102576.53
2023-01-28T13:07:19.066Z,102602.69
2023-01-28T13:09:54.777Z,102623.13
2023-01-28T13:12:24.411Z,102618.16
2023-01-28T13:14:55.144Z,102610.72
2023-01-28T13:17:29.630Z,102626.22
2023-01-28T13:19:59.381Z,102619.72
2023-01-28T13:22:31.920Z,102613.28
2023-01-28T13:25:19.969Z,102618.78
2023-01-28T13:27:58.224Z,102621.72
2023-01-28T13:30:30.925Z,102614.78
2023-01-28T13:33:01.854Z,102623.94
2023-01-28T13:35:34.412Z,102626.19
2023-01-28T13:38:10.317Z,102635.56
2023-01-28T13:40:41.854Z,102635.44
2023-01-28T13:43:37.369Z,102628.19
2023-01-28T13:46:10.417Z,102622.13
2023-01-28T13:48:46.257Z,102621.31
2023-01-28T13:51:21.800Z,102626.41
2023-01-28T13:53:57.121Z,102626.22
2023-01-28T13:56:29.757Z,102626.38
2023-01-28T13:59:29.389Z,102628.66
2023-01-28T14:02:34.164Z,102624.22
2023-01-28T14:05:45.585Z,102644.06
2023-01-28T14:08:50.713Z,102640.28
2023-01-28T14:11:56.122Z,102625.88
2023-01-28T14:14:52.338Z,102629.84
2023-01-28T14:17:34.122Z,102623.50
2023-01-28T14:20:06.115Z,102618.72
2023-01-28T14:22:36.047Z,102607.91
2023-01-28T14:25:05.889Z,102609.09
2023-01-28T14:27:39.888Z,102591.94
2023-01-28T14:30:18.122Z,102579.09
2023-01-28T14:32:49.819Z,102586.69
2023-01-28T14:35:25.928Z,102575.56
2023-01-28T14:37:55.541Z,102574.53
2023-01-28T14:40:25.451Z,102578.53
2023-01-28T14:42:56.337Z,102571.69
2023-01-28T14:45:38.337Z,102559.25
2023-01-28T14:48:27.092Z,102566.31
2023-01-28T14:51:16.361Z,102574.00
2023-01-28T14:54:05.385Z,102569.19
2023-01-28T14:56:47.725Z,102568.63
2023-01-28T14:59:22.019Z,102572.50
2023-01-28T15:01:58.504Z,102578.47
2023-01-28T15:04:29.216Z,102587.09
2023-01-28T15:07:16.285Z,102580.44
2023-01-28T15:09:45.286Z,102586.78
2023-01-28T15:12:15.541Z,102585.06
2023-01-28T15:14:46.839Z,102592.22
2023-01-28T15:17:26.410Z,102605.28
2023-01-28T15:19:58.261Z,102608.03
2023-01-28T15:22:30.154Z,102602.97
2023-01-28T15:24:58.824Z,102604.56
2023-01-28T15:27:30.652Z,102608.84
2023-01-28T15:30:00.703Z,102610.66
2023-01-28T15:32:31.745Z,102619.94
2023-01-28T15:35:02.177Z,102615.63
2023-01-28T15:37:32.211Z,102625.44
2023-01-28T15:40:07.131Z,102631.91
2023-01-28T15:42:36.358Z,102640.50
2023-01-28T15:45:05.644Z,102645.78
2023-01-28T15:47:36.228Z,102651.38
2023-01-28T15:50:08.325Z,102644.09
2023-01-28T15:52:40.665Z,102650.88
2023-01-28T15:55:29.605Z,102647.59
2023-01-28T15:57:58.302Z,102639.53
2023-01-28T16:00:28.194Z,102647.44
2023-01-28T16:03:08.462Z,102643.13
2023-01-28T16:05:40.307Z,102652.72
2023-01-28T16:08:13.411Z,102658.50
2023-01-28T16:10:41.960Z,102665.69
2023-01-28T16:13:20.764Z,102683.72
2023-01-28T16:15:52.658Z,102687.63
2023-01-28T16:18:30.341Z,102696.00
2023-01-28T16:20:59.722Z,102687.56
2023-01-28T16:23:30.463Z,102686.38
2023-01-28T16:26:03.306Z,102691.88
2023-01-28T16:28:32.686Z,102684.50
2023-01-28T16:31:01.559Z,102682.75
2023-01-28T16:33:30.209Z,102682.13
2023-01-28T16:36:08.199Z,102684.72
2023-01-28T16:38:38.725Z,102687.69
2023-01-28T16:41:12.462Z,102684.72
2023-01-28T16:43:41.077Z,102689.88
2023-01-28T16:46:13.661Z,102689.63
2023-01-28T16:48:42.315Z,102688.09
2023-01-28T16:51:17.657Z,102696.31
2023-01-28T16:53:48.918Z,102695.97
2023-01-28T16:56:35.905Z,102682.63
2023-01-28T16:59:09.999Z,102677.28
2023-01-28T17:01:38.643Z,102687.22
2023-01-28T17:04:12.063Z,102687.38
2023-01-28T17:06:44.275Z,102682.19
2023-01-28T17:09:15.793Z,102686.66
2023-01-28T17:11:44.507Z,102676.59
2023-01-28T17:14:13.416Z,102675.00
2023-01-28T17:16:42.111Z,102678.19
2023-01-28T17:19:10.729Z,102677.34
2023-01-28T17:21:39.267Z,102673.59
2023-01-28T17:24:08.565Z,102675.00
2023-01-28T17:26:38.813Z,102665.38
2023-01-28T17:29:08.527Z,102648.06
2023-01-28T17:31:37.643Z,102653.53
2023-01-28T17:34:07.104Z,102662.19
2023-01-28T17:36:35.911Z,102667.69
2023-01-28T17:39:04.632Z,102671.44
2023-01-28T17:41:33.319Z,102679.81
2023-01-28T17:44:04.601Z,102682.72
2023-01-28T17:46:33.318Z,102689.91
2023-01-28T17:49:03.958Z,102695.53
2023-01-28T17:51:32.570Z,102704.63
2023-01-28T17:54:01.147Z,102699.13
2023-01-28T17:56:31.270Z,102697.56
2023-01-28T17:59:03.818Z,102708.25
2023-01-28T18:01:32.652Z,102711.41
2023-01-28T18:04:01.737Z,102713.75
2023-01-28T18:06:32.684Z,102714.47
2023-01-28T18:09:01.501Z,102728.84
2023-01-28T18:11:30.496Z,102730.34
2023-01-28T18:13:59.139Z,102729.44
2023-01-28T18:16:29.117Z,102723.41
2023-01-28T18:18:57.727Z,102712.03
2023-01-28T18:21:46.433Z,102712.16
2023-01-28T18:24:19.315Z,102717.81
2023-01-28T18:26:47.966Z,102723.28
2023-01-28T18:29:16.906Z,102723.97
2023-01-28T18:31:47.682Z,102734.38
2023-01-28T18:34:16.916Z,102726.03
2023-01-28T18:36:45.564Z,102733.50
2023-01-28T18:39:15.406Z,102731.06
2023-01-28T18:41:44.211Z,102738.59
2023-01-28T18:44:13.313Z,102744.38
2023-01-28T18:46:42.564Z,102742.50
2023-01-28T18:49:12.746Z,102742.50
2023-01-28T18:51:41.380Z,102746.09
2023-01-28T18:54:13.715Z,102752.72
2023-01-28T18:56:43.796Z,102753.03
2023-01-28T18:59:14.938Z,102744.25
2023-01-28T19:01:44.325Z,102748.44
2023-01-28T19:04:15.560Z,102753.91
2023-01-28T19:06:44.859Z,102751.16
2023-01-28T19:09:15.308Z,102754.75
2023-01-28T19:11:44.809Z,102741.38
2023-01-28T19:14:15.165Z,102739.78
2023-01-28T19:16:44.186Z,102751.59
2023-01-28T19:19:14.341Z,102744.00
2023-01-28T19:21:42.919Z,102750.47
2023-01-28T19:24:14.959Z,102752.34
2023-01-28T19:26:44.734Z,102749.63
2023-01-28T19:29:15.628Z,102744.72
2023-01-28T19:31:48.778Z,102749.63
2023-01-28T19:34:19.234Z,102745.72
2023-01-28T19:36:47.862Z,102749.47
2023-01-28T19:39:16.823Z,102746.72
2023-01-28T19:41:45.882Z,102748.19
2023-01-28T19:44:14.609Z,102754.38
2023-01-28T19:46:43.273Z,102740.00
2023-01-28T19:49:12.711Z,102757.00
2023-01-28T19:51:42.677Z,102754.84
2023-01-28T19:54:11.253Z,102763.03
2023-01-28T19:56:39.848Z,102774.00
2023-01-28T19:59:08.678Z,102771.25
2023-01-28T20:01:37.371Z,102775.56
2023-01-28T20:04:06.131Z,102782.31
2023-01-28T20:06:35.722Z,102780.78
2023-01-28T20:09:07.764Z,102771.84
2023-01-28T20:11:36.624Z,102772.69
2023-01-28T20:14:05.236Z,102773.41
2023-01-28T20:16:35.804Z,102768.84
2023-01-28T20:19:07.159Z,102772.13
2023-01-28T20:21:37.166Z,102764.22
2023-01-28T20:24:07.889Z,102763.38
2023-01-28T20:26:38.555Z,102761.22
2023-01-28T20:29:09.556Z,102748.84
2023-01-28T20:31:39.125Z,102757.22
2023-01-28T20:34:08.074Z,102756.47
2023-01-28T20:36:36.651Z,102754.91
2023-01-28T20:39:06.746Z,102750.56
2023-01-28T20:41:35.567Z,102745.25
2023-01-28T20:44:04.562Z,102746.69
2023-01-28T20:46:36.543Z,102737.91
2023-01-28T20:49:06.635Z,102737.22
2023-01-28T20:51:36.433Z,102737.22
2023-01-28T20:54:06.782Z,102732.59
2023-01-28T20:56:35.632Z,102733.19
2023-01-28T20:59:06.096Z,102734.91
2023-01-28T21:01:36.577Z,102715.47
2023-01-28T21:04:06.213Z,102722.66
2023-01-28T21:06:36.368Z,102721.41
2023-01-28T21:09:06.738Z,102721.41
2023-01-28T21:11:35.512Z,102717.19
2023-01-28T21:14:04.313Z,102717.06
2023-01-28T21:16:32.965Z,102713.16
2023-01-28T21:19:01.591Z,102710.44
2023-01-28T21:21:31.072Z,102712.34
2023-01-28T21:24:01.498Z,102717.09
2023-01-28T21:26:31.574Z,102714.78
2023-01-28T21:29:00.225Z,102711.16
2023-01-28T21:31:29.092Z,102710.28
2023-01-28T21:34:01.216Z,102707.72
2023-01-28T21:36:33.626Z,102708.31
2023-01-28T21:39:03.611Z,102698.38
2023-01-28T21:41:33.890Z,102707.56
2023-01-28T21:44:02.795Z,102691.72
2023-01-28T21:46:33.423Z,102701.13
2023-01-28T21:49:03.524Z,102698.38
2023-01-28T21:51:39.627Z,102697.50
2023-01-28T21:54:12.907Z,102713.03
2023-01-28T21:56:44.991Z,102700.94
2023-01-28T21:59:28.361Z,102711.03
2023-01-28T22:01:58.376Z,102707.72
2023-01-28T22:04:27.810Z,102710.31
2023-01-28T22:06:56.718Z,102725.16
2023-01-28T22:09:25.380Z,102719.25
2023-01-28T22:11:55.596Z,102724.88
2023-01-28T22:14:24.179Z,102723.69
2023-01-28T22:16:53.001Z,102729.16
2023-01-28T22:19:21.619Z,102726.16
2023-01-28T22:21:50.251Z,102720.69
2023-01-28T22:24:20.718Z,102724.44
2023-01-28T22:26:49.899Z,102717.09
2023-01-28T22:29:22.018Z,102730.94
2023-01-28T22:31:52.069Z,102745.59
2023-01-28T22:34:21.851Z,102735.53
2023-01-28T22:36:50.907Z,102732.34
2023-01-28T22:39:20.212Z,102734.06
2023-01-28T22:41:48.944Z,102734.53
2023-01-28T22:44:19.969Z,102732.81
2023-01-28T22:46:49.206Z,102732.53
2023-01-28T22:49:17.815Z,102731.63
2023-01-28T22:51:46.417Z,102723.13
2023-01-28T22:54:15.308Z,102722.72
2023-01-28T22:56:44.029Z,102734.69
2023-01-28T22:59:12.997Z,102726.31
2023-01-28T23:01:43.108Z,102728.78
2023-01-28T23:04:12.208Z,102718.00
2023-01-28T23:06:40.853Z,102722.44
2023-01-28T23:09:09.449Z,102713.50
2023-01-28T23:11:38.055Z,102714.38
2023-01-28T23:14:23.978Z,102708.06
2023-01-28T23:17:11.348Z,102707.34
2023-01-28T23:19:57.471Z,102708.66
2023-01-28T23:22:47.371Z,102702.16
2023-01-28T23:25:16.377Z,102702.00
2023-01-28T23:27:45.444Z,102704.91
2023-01-28T23:30:15.600Z,102707.75
2023-01-28T23:32:48.849Z,102707.63
2023-01-28T23:35:19.125Z,102695.28
2023-01-28T23:37:48.295Z,102698.56
2023-01-28T23:40:18.011Z,102697.13
2023-01-28T23:42:50.575Z,102696.13
2023-01-28T23:45:19.356Z,102697.13
2023-01-28T23:47:49.467Z,102691.25
2023-01-28T23:50:18.828Z,102685.19
2023-01-28T23:52:47.570Z,102677.84
2023-01-28T23:55:16.521Z,102673.97
2023-01-28T23:57:45.108Z,102665.91
